Time;durP1;ratioP1;P1;durP2;ratioP2;P2;SDS_P1;SDS_P2;PMS_P1;PMS_P2;Temp;Humidity;BMP_temperature;BMP_pressure;BME280_temperature;BME280_humidity;BME280_pressure;Samples;Min_cycle;Max_cycle;Signal;HPM_P1;HPM_P2
2022/04/15 00:00:23;;;;;;;29.20;18.63;;;10.10;99.90;;;;;;5255808;28;20220;-52
2022/04/15 00:02:55;;;;;;;31.80;20.07;;;10.00;99.90;;;;;;5258891;28;20189;-53
2022/04/15 00:05:36;;;;;;;40.50;21.10;;;10.00;99.90;;;;;;5239538;28;20186;-53
2022/04/15 00:08:09;;;;;;;36.43;21.63;;;10.00;99.90;;;;;;5259180;28;20441;-51
2022/04/15 00:10:45;;;;;;;35.40;22.00;;;10.00;99.90;;;;;;5246040;28;20996;-51
2022/04/15 00:13:19;;;;;;;30.17;20.27;;;9.90;99.90;;;;;;5256298;28;20459;-51
2022/04/15 00:15:51;;;;;;;32.47;22.20;;;9.90;99.90;;;;;;5258688;28;20423;-52
2022/04/15 00:18:21;;;;;;;29.63;21.23;;;9.90;99.90;;;;;;5243185;28;20791;-52
2022/04/15 00:20:53;;;;;;;35.80;21.60;;;9.90;99.90;;;;;;5259151;28;20459;-54
2022/04/15 00:23:24;;;;;;;36.60;21.03;;;9.80;99.90;;;;;;5260423;28;20189;-52
2022/04/15 00:25:55;;;;;;;34.47;22.20;;;9.80;99.90;;;;;;5246185;28;20424;-52
2022/04/15 00:28:25;;;;;;;31.07;21.33;;;9.80;99.90;;;;;;5261745;28;20431;-53
2022/04/15 00:30:57;;;;;;;31.93;22.53;;;9.80;99.90;;;;;;5256535;28;20459;-52
2022/04/15 00:33:28;;;;;;;32.73;20.93;;;9.80;99.90;;;;;;5260906;28;20701;-52
2022/04/15 00:35:58;;;;;;;37.80;21.83;;;9.80;99.90;;;;;;5259191;28;20613;-53
2022/04/15 00:38:29;;;;;;;39.13;21.30;;;9.90;99.90;;;;;;5260500;28;20523;-52
2022/04/15 00:40:59;;;;;;;34.10;21.97;;;10.00;99.90;;;;;;5245690;28;20657;-52
2022/04/15 00:43:30;;;;;;;27.77;20.47;;;10.00;99.90;;;;;;5246073;28;20193;-51
2022/04/15 00:46:10;;;;;;;41.33;20.60;;;10.10;99.90;;;;;;5257690;28;20201;-53
2022/04/15 00:48:41;;;;;;;31.07;20.60;;;10.10;99.90;;;;;;5256456;28;20271;-52
2022/04/15 00:51:11;;;;;;;32.97;18.20;;;10.10;99.90;;;;;;5265645;28;20447;-51
2022/04/15 00:53:44;;;;;;;26.43;18.60;;;10.10;99.90;;;;;;5264786;28;21746;-53
2022/04/15 00:56:16;;;;;;;27.57;19.27;;;10.10;99.90;;;;;;5257971;28;20178;-52
2022/04/15 00:58:48;;;;;;;24.70;15.77;;;10.10;99.90;;;;;;5261850;28;20459;-52
2022/04/15 01:01:18;;;;;;;21.97;16.30;;;10.10;99.90;;;;;;5252753;28;20546;-51
2022/04/15 01:03:50;;;;;;;21.63;15.17;;;10.00;99.90;;;;;;5257697;28;20519;-53
2022/04/15 01:06:24;;;;;;;26.43;14.70;;;10.00;99.90;;;;;;5259997;28;20649;-53
2022/04/15 01:08:58;;;;;;;22.27;14.30;;;10.00;99.90;;;;;;5244337;28;20461;-52
2022/04/15 01:11:33;;;;;;;17.40;14.30;;;9.90;99.90;;;;;;5253238;28;20464;-52
2022/04/15 01:14:05;;;;;;;22.70;15.43;;;10.00;99.90;;;;;;5242471;28;20529;-52
2022/04/15 01:16:35;;;;;;;25.60;15.47;;;10.00;99.90;;;;;;5265387;28;20439;-51
2022/04/15 01:19:06;;;;;;;19.87;15.07;;;10.10;99.90;;;;;;5248616;28;20436;-52
2022/04/15 01:21:38;;;;;;;18.80;13.53;;;10.10;99.90;;;;;;5263990;28;20220;-52
2022/04/15 01:24:08;;;;;;;19.83;13.27;;;10.10;99.90;;;;;;5245636;28;22229;-52
2022/04/15 01:26:39;;;;;;;15.93;12.27;;;10.00;99.90;;;;;;5262141;28;20453;-52
2022/04/15 01:29:09;;;;;;;16.40;11.60;;;10.10;99.90;;;;;;5249884;28;20195;-53
2022/04/15 01:31:40;;;;;;;16.40;11.10;;;10.10;99.90;;;;;;5246977;28;20205;-52
2022/04/15 01:34:11;;;;;;;13.20;9.47;;;10.10;99.90;;;;;;5265513;28;20266;-53
2022/04/15 01:36:41;;;;;;;12.70;10.23;;;10.10;99.90;;;;;;5263241;28;20209;-52
2022/04/15 01:39:11;;;;;;;14.30;9.20;;;10.10;99.90;;;;;;5267656;28;20188;-52
2022/04/15 01:41:44;;;;;;;16.87;8.73;;;10.20;99.90;;;;;;5270858;22;20237;-52
2022/04/15 01:44:15;;;;;;;10.13;9.13;;;10.10;99.90;;;;;;5251759;28;20190;-51
2022/04/15 01:46:46;;;;;;;8.70;7.83;;;10.10;99.90;;;;;;5245543;28;20444;-51
2022/04/15 01:49:17;;;;;;;9.93;8.47;;;10.10;99.90;;;;;;5248188;28;20448;-50
2022/04/15 01:51:47;;;;;;;10.90;8.30;;;10.10;99.90;;;;;;5266147;28;20212;-51
2022/04/15 01:54:18;;;;;;;7.90;6.37;;;10.10;99.90;;;;;;5268699;28;20292;-54
2022/04/15 01:56:48;;;;;;;12.30;6.57;;;10.00;99.90;;;;;;5271409;28;20193;-50
2022/04/15 01:59:19;;;;;;;9.40;6.77;;;9.80;99.90;;;;;;5266303;28;20834;-51
2022/04/15 02:01:54;;;;;;;7.60;6.40;;;9.70;99.90;;;;;;5265823;28;20201;-51
2022/04/15 02:04:26;;;;;;;10.57;6.63;;;9.50;99.90;;;;;;5271642;28;20189;-51
2022/04/15 02:06:57;;;;;;;7.03;6.33;;;9.50;99.90;;;;;;5258746;28;20448;-51
2022/04/15 02:09:28;;;;;;;6.97;6.23;;;9.30;99.90;;;;;;5267500;28;20530;-54
2022/04/15 02:11:59;;;;;;;10.80;6.23;;;9.00;99.90;;;;;;5267508;28;20458;-53
2022/04/15 02:14:29;;;;;;;8.40;6.37;;;8.90;99.90;;;;;;5267641;28;20442;-53
2022/04/15 02:17:00;;;;;;;8.90;6.90;;;8.80;99.90;;;;;;5270688;28;20184;-53
2022/04/15 02:19:31;;;;;;;11.07;6.63;;;8.80;99.90;;;;;;5269383;28;20244;-53
2022/04/15 02:22:01;;;;;;;7.50;6.70;;;8.80;99.90;;;;;;5270910;28;20198;-53
2022/04/15 02:24:32;;;;;;;6.83;6.20;;;8.80;99.90;;;;;;5271559;28;20256;-53
2022/04/15 02:27:03;;;;;;;8.30;5.83;;;8.80;99.90;;;;;;5262914;28;20186;-53
2022/04/15 02:29:34;;;;;;;8.17;6.30;;;8.80;99.90;;;;;;5243072;28;20178;-51
2022/04/15 02:32:06;;;;;;;6.97;6.27;;;8.80;99.90;;;;;;5260249;28;20197;-50
2022/04/15 02:34:36;;;;;;;10.00;7.50;;;8.80;99.90;;;;;;5264680;28;20522;-51
2022/04/15 02:37:07;;;;;;;11.73;7.20;;;8.80;99.90;;;;;;5262079;28;20519;-51
2022/04/15 02:39:38;;;;;;;7.77;7.00;;;8.70;99.90;;;;;;5260825;28;20710;-54
2022/04/15 02:42:09;;;;;;;11.20;7.20;;;8.70;99.90;;;;;;5262909;28;20217;-51
2022/04/15 02:44:39;;;;;;;17.97;8.17;;;8.60;99.90;;;;;;5262882;28;20181;-51
2022/04/15 02:47:10;;;;;;;10.60;7.50;;;8.60;99.90;;;;;;5261420;28;20446;-51
2022/04/15 02:49:41;;;;;;;9.77;7.80;;;8.50;99.90;;;;;;5256621;28;20208;-51
2022/04/15 02:52:11;;;;;;;8.93;7.30;;;8.40;99.90;;;;;;5259923;28;20209;-51
2022/04/15 02:54:42;;;;;;;11.13;7.33;;;8.40;99.90;;;;;;5261630;28;20174;-51
2022/04/15 02:57:12;;;;;;;10.53;6.77;;;8.50;99.90;;;;;;5257828;28;20170;-51
2022/04/15 02:59:43;;;;;;;8.33;7.33;;;8.50;99.90;;;;;;5263491;28;20311;-52
2022/04/15 03:02:15;;;;;;;15.33;7.23;;;8.50;99.90;;;;;;5259569;28;20272;-50
2022/04/15 03:04:45;;;;;;;9.80;6.57;;;8.60;99.90;;;;;;5267518;28;20823;-51
2022/04/15 03:07:16;;;;;;;19.20;8.07;;;8.60;99.90;;;;;;5262660;28;20429;-51
2022/04/15 03:09:46;;;;;;;9.10;7.03;;;8.50;99.90;;;;;;5262589;28;20242;-53
2022/04/15 03:12:17;;;;;;;8.67;7.77;;;8.60;99.90;;;;;;5250400;28;20208;-51
2022/04/15 03:14:50;;;;;;;13.53;7.23;;;8.60;99.90;;;;;;5250585;28;20845;-51
2022/04/15 03:17:21;;;;;;;10.17;7.40;;;8.60;99.90;;;;;;5266118;28;20530;-50
2022/04/15 03:19:52;;;;;;;8.47;6.93;;;8.60;99.90;;;;;;5264111;28;20431;-50
2022/04/15 03:22:22;;;;;;;7.20;6.40;;;8.70;99.90;;;;;;5267104;28;20614;-52
2022/04/15 03:24:53;;;;;;;9.93;6.73;;;8.60;99.90;;;;;;5268611;28;20234;-51
2022/04/15 03:27:23;;;;;;;10.43;7.77;;;8.70;99.90;;;;;;5264505;28;20189;-50
2022/04/15 03:29:54;;;;;;;7.03;6.00;;;8.60;99.90;;;;;;5263668;28;20177;-51
2022/04/15 03:32:25;;;;;;;15.07;7.90;;;8.60;99.90;;;;;;5262346;28;20221;-52
2022/04/15 03:34:56;;;;;;;9.30;7.43;;;8.60;99.90;;;;;;5265529;28;20257;-51
2022/04/15 03:37:26;;;;;;;9.17;6.90;;;8.60;99.90;;;;;;5266935;28;20185;-51
2022/04/15 03:39:57;;;;;;;7.80;7.10;;;8.60;99.90;;;;;;5267207;28;20821;-52
2022/04/15 03:42:27;;;;;;;8.00;7.03;;;8.50;99.90;;;;;;5267187;28;20200;-50
2022/04/15 03:45:01;;;;;;;7.27;6.37;;;8.60;99.90;;;;;;5261319;28;20177;-50
2022/04/15 03:47:31;;;;;;;11.63;6.83;;;8.70;99.90;;;;;;5264815;28;20185;-51
2022/04/15 03:50:02;;;;;;;12.00;6.93;;;8.70;99.90;;;;;;5267439;28;20440;-51
2022/04/15 03:52:38;;;;;;;14.73;6.80;;;8.70;99.90;;;;;;5264427;28;21079;-51
2022/04/15 03:55:11;;;;;;;10.07;7.27;;;8.70;99.90;;;;;;5266474;28;20177;-53
2022/04/15 03:57:41;;;;;;;10.47;7.27;;;8.70;99.90;;;;;;5267087;28;20436;-51
2022/04/15 04:00:14;;;;;;;11.93;7.70;;;8.70;99.90;;;;;;5264219;28;20432;-51
2022/04/15 04:02:47;;;;;;;9.03;8.00;;;8.70;99.90;;;;;;5264985;28;20216;-51
2022/04/15 04:05:17;;;;;;;9.60;8.20;;;8.70;99.90;;;;;;5267119;28;20858;-51
2022/04/15 04:07:48;;;;;;;10.10;8.90;;;8.50;99.90;;;;;;5264908;28;20443;-50
2022/04/15 04:10:19;;;;;;;12.13;7.97;;;8.60;99.90;;;;;;5263465;28;20746;-52
2022/04/15 04:12:51;;;;;;;12.50;8.40;;;8.60;99.90;;;;;;5256983;28;20459;-52
2022/04/15 04:15:22;;;;;;;23.93;9.80;;;8.60;99.90;;;;;;5253891;28;20210;-50
2022/04/15 04:17:53;;;;;;;13.00;8.93;;;8.50;99.90;;;;;;5263959;28;20432;-55
2022/04/15 04:20:24;;;;;;;9.17;8.20;;;8.50;99.90;;;;;;5260111;28;20458;-52
2022/04/15 04:22:55;;;;;;;14.60;8.87;;;8.70;99.90;;;;;;5261167;28;20580;-51
2022/04/15 04:25:26;;;;;;;13.30;8.60;;;8.60;99.90;;;;;;5265470;28;20185;-50
2022/04/15 04:27:57;;;;;;;10.90;9.00;;;8.60;99.90;;;;;;5260154;28;20440;-51
2022/04/15 04:30:28;;;;;;;12.93;9.70;;;8.50;99.90;;;;;;5263871;28;20477;-50
2022/04/15 04:32:59;;;;;;;9.43;8.33;;;8.50;99.90;;;;;;5263395;28;20229;-50
2022/04/15 04:35:29;;;;;;;16.03;8.77;;;8.50;99.90;;;;;;5259727;28;20204;-51
2022/04/15 04:38:00;;;;;;;14.07;8.80;;;8.50;99.90;;;;;;5244745;28;20425;-51
2022/04/15 04:40:31;;;;;;;19.20;9.43;;;8.60;99.90;;;;;;5259880;28;20209;-51
2022/04/15 04:43:04;;;;;;;12.03;8.03;;;8.70;99.90;;;;;;5261111;28;20199;-50
2022/04/15 04:45:36;;;;;;;9.83;7.53;;;8.70;99.90;;;;;;5264214;28;20435;-50
2022/04/15 04:48:07;;;;;;;17.23;8.60;;;8.70;99.90;;;;;;5262670;28;22157;-50
2022/04/15 04:50:38;;;;;;;11.57;7.43;;;8.80;99.90;;;;;;5258181;28;20506;-50
2022/04/15 04:53:08;;;;;;;11.80;8.70;;;8.70;99.90;;;;;;5257072;28;20488;-51
2022/04/15 04:55:39;;;;;;;11.80;7.73;;;8.70;99.90;;;;;;5249004;28;20182;-51
2022/04/15 04:58:10;;;;;;;9.97;8.30;;;8.60;99.90;;;;;;5265942;28;20181;-52
2022/04/15 05:00:40;;;;;;;12.57;8.67;;;8.70;99.90;;;;;;5260195;28;20225;-50
2022/04/15 05:03:11;;;;;;;11.27;8.67;;;8.70;99.90;;;;;;5245817;28;20181;-51
2022/04/15 05:05:42;;;;;;;15.03;8.90;;;8.70;99.90;;;;;;5261429;28;20183;-51
2022/04/15 05:08:12;;;;;;;11.97;7.90;;;8.70;99.90;;;;;;5261124;28;20435;-50
2022/04/15 05:10:43;;;;;;;15.10;8.03;;;8.70;99.90;;;;;;5258149;28;20728;-52
2022/04/15 05:13:13;;;;;;;14.17;9.37;;;8.70;99.90;;;;;;5262646;28;20288;-50
2022/04/15 05:15:44;;;;;;;8.77;7.87;;;8.70;99.90;;;;;;5261496;28;20185;-51
2022/04/15 05:18:15;;;;;;;13.13;9.33;;;8.70;99.90;;;;;;5265133;28;20213;-50
2022/04/15 05:20:45;;;;;;;13.23;7.73;;;8.70;99.90;;;;;;5259072;28;20202;-50
2022/04/15 05:23:16;;;;;;;10.50;9.17;;;8.70;99.90;;;;;;5260762;28;20599;-51
2022/04/15 05:25:46;;;;;;;9.83;8.13;;;8.70;99.90;;;;;;5260065;28;20208;-51
2022/04/15 05:28:18;;;;;;;11.27;7.93;;;8.80;99.90;;;;;;5260304;28;20687;-51
2022/04/15 05:30:48;;;;;;;13.80;8.73;;;8.80;99.90;;;;;;5258772;28;20239;-51
2022/04/15 05:33:19;;;;;;;11.67;8.20;;;8.80;99.90;;;;;;5259934;28;20554;-52
2022/04/15 05:35:49;;;;;;;10.80;8.00;;;8.90;99.90;;;;;;5268593;28;20227;-51
2022/04/15 05:38:20;;;;;;;13.23;7.83;;;8.80;99.90;;;;;;5259999;28;20709;-52
2022/04/15 05:40:51;;;;;;;10.13;7.57;;;8.90;99.90;;;;;;5251878;28;20761;-51
2022/04/15 05:43:21;;;;;;;11.93;7.80;;;9.00;99.90;;;;;;5253738;28;20186;-52
2022/04/15 05:45:52;;;;;;;7.50;6.77;;;9.10;99.90;;;;;;5259893;28;20435;-51
2022/04/15 05:48:22;;;;;;;7.87;7.07;;;9.20;99.90;;;;;;5257176;28;20246;-51
2022/04/15 05:50:53;;;;;;;9.07;7.17;;;9.30;99.90;;;;;;5254979;28;20530;-50
2022/04/15 05:53:24;;;;;;;15.00;8.00;;;9.20;99.90;;;;;;5259810;28;20220;-50
2022/04/15 05:55:55;;;;;;;13.80;6.10;;;9.20;99.90;;;;;;5261479;28;20217;-51
2022/04/15 05:58:26;;;;;;;15.53;7.27;;;9.30;99.90;;;;;;5260808;28;20178;-52
2022/04/15 06:00:57;;;;;;;9.77;7.33;;;9.40;99.90;;;;;;5245131;28;20451;-51
2022/04/15 06:03:32;;;;;;;8.30;6.50;;;9.20;99.90;;;;;;5257677;28;20447;-51
2022/04/15 06:06:03;;;;;;;10.67;6.20;;;9.30;99.90;;;;;;5264683;28;20239;-50
2022/04/15 06:08:34;;;;;;;11.13;6.23;;;9.30;99.90;;;;;;5260078;28;20520;-53
2022/04/15 06:11:04;;;;;;;10.00;6.73;;;9.40;99.90;;;;;;5255142;28;20450;-51
2022/04/15 06:13:35;;;;;;;7.00;6.30;;;9.40;99.90;;;;;;5260456;28;20193;-51
2022/04/15 06:16:08;;;;;;;7.17;6.47;;;9.30;99.90;;;;;;5260360;28;20181;-51
2022/04/15 06:18:38;;;;;;;7.73;6.80;;;9.30;99.90;;;;;;5258429;28;20210;-52
2022/04/15 06:21:09;;;;;;;7.23;6.63;;;9.20;99.90;;;;;;5265533;28;20486;-51
2022/04/15 06:23:40;;;;;;;8.50;6.80;;;9.30;99.90;;;;;;5264259;28;20666;-50
2022/04/15 06:26:10;;;;;;;10.67;7.00;;;9.30;99.90;;;;;;5258925;28;20187;-51
2022/04/15 06:28:41;;;;;;;17.60;6.90;;;9.30;99.90;;;;;;5252768;28;20232;-51
2022/04/15 06:31:11;;;;;;;11.03;6.63;;;9.50;99.90;;;;;;5256832;28;20198;-51
2022/04/15 06:33:42;;;;;;;7.00;6.27;;;9.40;99.90;;;;;;5260230;28;20209;-51
2022/04/15 06:36:13;;;;;;;8.50;6.63;;;9.50;99.90;;;;;;5251794;28;20768;-51
2022/04/15 06:38:43;;;;;;;9.93;6.23;;;9.40;99.90;;;;;;5264428;28;20182;-50
2022/04/15 06:41:14;;;;;;;8.93;6.57;;;9.40;99.90;;;;;;5255523;28;20217;-51
2022/04/15 06:43:44;;;;;;;19.03;11.97;;;9.40;99.90;;;;;;5261560;28;20195;-51
2022/04/15 06:46:15;;;;;;;11.30;7.03;;;9.40;99.90;;;;;;5256738;28;20470;-52
2022/04/15 06:48:45;;;;;;;12.20;7.53;;;9.40;99.90;;;;;;5263797;28;20178;-51
2022/04/15 06:51:16;;;;;;;7.47;6.43;;;9.30;99.90;;;;;;5264699;28;20205;-50
2022/04/15 06:53:46;;;;;;;7.80;7.00;;;9.30;99.90;;;;;;5259356;28;20190;-51
2022/04/15 06:56:17;;;;;;;14.93;5.67;;;9.50;99.90;;;;;;5258295;28;20239;-50
2022/04/15 06:58:48;;;;;;;8.80;7.50;;;9.60;99.90;;;;;;5266185;28;20191;-50
2022/04/15 07:01:19;;;;;;;7.10;6.10;;;9.50;99.90;;;;;;5259731;28;20977;-52
2022/04/15 07:03:49;;;;;;;13.70;7.20;;;9.60;99.90;;;;;;5262780;28;20439;-51
2022/04/15 07:06:20;;;;;;;9.73;7.00;;;9.60;99.90;;;;;;5262346;28;20279;-51
2022/04/15 07:08:51;;;;;;;6.90;6.30;;;9.70;99.90;;;;;;5266656;28;20178;-51
2022/04/15 07:11:21;;;;;;;6.97;6.30;;;9.80;99.90;;;;;;5254990;28;20257;-52
2022/04/15 07:13:52;;;;;;;10.20;6.60;;;9.80;99.90;;;;;;5258527;28;20210;-51
2022/04/15 07:16:22;;;;;;;7.30;6.40;;;9.70;99.90;;;;;;5267825;28;20201;-51
2022/04/15 07:18:56;;;;;;;7.20;6.50;;;9.70;99.90;;;;;;5268906;28;20185;-50
2022/04/15 07:21:26;;;;;;;6.37;5.70;;;9.70;99.90;;;;;;5260829;28;20225;-51
2022/04/15 07:23:57;;;;;;;7.93;7.00;;;9.80;99.90;;;;;;5265007;28;20435;-50
2022/04/15 07:26:28;;;;;;;11.73;6.97;;;9.80;99.90;;;;;;5256340;28;20553;-51
2022/04/15 07:28:59;;;;;;;12.93;6.17;;;9.70;99.90;;;;;;5260239;28;20441;-51
2022/04/15 07:31:30;;;;;;;6.77;6.10;;;9.70;99.90;;;;;;5261819;28;20210;-51
2022/04/15 07:34:01;;;;;;;10.40;6.47;;;9.70;99.90;;;;;;5259966;28;20464;-52
2022/04/15 07:39:08;;;;;;;6.50;5.70;;;9.70;99.90;;;;;;5255158;28;20182;-51
2022/04/15 07:41:39;;;;;;;9.83;7.50;;;9.70;99.90;;;;;;5256499;28;20464;-53
2022/04/15 07:44:11;;;;;;;8.07;7.07;;;9.80;99.90;;;;;;5252305;28;20436;-52
2022/04/15 07:46:43;;;;;;;8.00;6.37;;;9.70;99.90;;;;;;5257916;28;20475;-52
2022/04/15 07:49:15;;;;;;;10.40;7.10;;;9.70;99.90;;;;;;5258229;28;20787;-54
2022/04/15 07:51:45;;;;;;;10.43;7.30;;;9.60;99.90;;;;;;5255096;28;20816;-54
2022/04/15 07:54:16;;;;;;;11.43;5.60;;;9.60;99.90;;;;;;5253958;28;20475;-54
2022/04/15 07:56:47;;;;;;;9.97;6.77;;;9.50;99.90;;;;;;5259997;28;20649;-53
2022/04/15 07:59:18;;;;;;;10.10;6.73;;;9.50;99.90;;;;;;5253309;28;20181;-53
2022/04/15 08:01:48;;;;;;;8.93;6.10;;;9.60;99.90;;;;;;5252841;28;20205;-53
2022/04/15 08:04:20;;;;;;;10.40;6.90;;;9.50;99.90;;;;;;5255685;28;20978;-52
2022/04/15 08:06:52;;;;;;;11.17;7.30;;;9.60;99.90;;;;;;5259664;28;20184;-53
2022/04/15 08:09:23;;;;;;;7.93;5.50;;;9.60;99.90;;;;;;5259298;28;20432;-54
2022/04/15 08:11:54;;;;;;;9.77;6.90;;;9.70;99.90;;;;;;5255199;28;20458;-53
2022/04/15 08:14:24;;;;;;;12.33;7.50;;;9.80;99.90;;;;;;5253960;28;20202;-53
2022/04/15 08:16:55;;;;;;;9.33;6.53;;;9.70;99.90;;;;;;5255609;28;20475;-54
2022/04/15 08:19:26;;;;;;;7.30;6.23;;;9.70;99.90;;;;;;5253622;28;20181;-52
2022/04/15 08:21:57;;;;;;;10.10;7.07;;;9.70;99.90;;;;;;5261793;28;20269;-54
2022/04/15 08:24:28;;;;;;;16.83;6.90;;;9.80;99.90;;;;;;5259839;28;20249;-54
2022/04/15 08:26:59;;;;;;;8.63;6.10;;;9.90;99.90;;;;;;5263787;28;20180;-53
2022/04/15 08:29:30;;;;;;;10.67;8.13;;;10.00;99.90;;;;;;5258735;28;21017;-54
2022/04/15 08:32:01;;;;;;;12.77;8.00;;;10.00;99.90;;;;;;5260227;28;20448;-53
2022/04/15 08:34:31;;;;;;;16.40;7.67;;;9.90;99.90;;;;;;5253988;28;20212;-53
2022/04/15 08:37:02;;;;;;;18.00;6.20;;;9.80;99.90;;;;;;5255423;28;20182;-54
2022/04/15 08:39:33;;;;;;;7.00;5.63;;;9.80;99.90;;;;;;5257993;28;20177;-54
2022/04/15 08:42:07;;;;;;;9.43;7.00;;;9.80;99.90;;;;;;5257999;28;20464;-54
2022/04/15 08:44:38;;;;;;;10.80;6.97;;;9.90;99.90;;;;;;5262565;28;20260;-53
2022/04/15 08:47:09;;;;;;;8.90;7.00;;;9.90;99.90;;;;;;5257060;28;20546;-52
2022/04/15 08:49:40;;;;;;;8.67;6.20;;;10.00;99.90;;;;;;5260180;28;20193;-53
2022/04/15 08:52:14;;;;;;;11.03;7.60;;;9.90;99.90;;;;;;5262479;28;20804;-54
2022/04/15 08:54:45;;;;;;;8.00;6.10;;;10.00;99.90;;;;;;5256752;28;20192;-54
2022/04/15 08:57:15;;;;;;;9.40;6.90;;;10.20;99.90;;;;;;5256037;28;20855;-53
2022/04/15 08:59:46;;;;;;;10.03;6.90;;;10.20;99.90;;;;;;5257127;28;20188;-55
2022/04/15 09:02:37;;;;;;;9.90;7.40;;;10.00;99.90;;;;;;5256038;28;20190;-53
2022/04/15 09:05:09;;;;;;;16.10;8.93;;;10.00;99.90;;;;;;5259763;28;20205;-53
2022/04/15 09:07:40;;;;;;;12.30;6.80;;;9.90;99.90;;;;;;5255282;28;20435;-53
2022/04/15 09:10:11;;;;;;;15.97;7.20;;;9.80;99.90;;;;;;5253676;28;21042;-54
2022/04/15 09:12:42;;;;;;;8.87;6.67;;;9.80;99.90;;;;;;5252892;28;20471;-54
2022/04/15 09:15:14;;;;;;;6.63;6.10;;;9.80;99.90;;;;;;5259434;28;20427;-53
2022/04/15 09:17:49;;;;;;;24.10;12.20;;;9.80;99.90;;;;;;5262248;28;20455;-53
2022/04/15 09:20:21;;;;;;;17.60;6.97;;;9.80;99.90;;;;;;5256184;28;20447;-52
2022/04/15 09:22:55;;;;;;;10.50;6.23;;;9.70;99.90;;;;;;5255277;28;20424;-52
2022/04/15 09:25:27;;;;;;;10.50;6.90;;;9.80;99.90;;;;;;5263023;28;20428;-54
2022/04/15 09:27:58;;;;;;;10.17;7.20;;;9.80;99.90;;;;;;5262221;28;20960;-54
2022/04/15 09:30:36;;;;;;;16.87;7.07;;;9.90;99.90;;;;;;5253804;28;20545;-55
2022/04/15 09:33:10;;;;;;;9.67;6.83;;;9.80;99.90;;;;;;5264323;28;20201;-53
2022/04/15 09:35:49;;;;;;;9.97;6.43;;;9.80;99.90;;;;;;5254697;28;20443;-55
2022/04/15 09:38:19;;;;;;;13.40;6.77;;;9.80;99.90;;;;;;5254034;28;20432;-52
2022/04/15 09:40:50;;;;;;;12.13;7.17;;;9.70;99.90;;;;;;5261927;28;21052;-55
2022/04/15 09:43:20;;;;;;;10.50;7.70;;;9.60;99.90;;;;;;5255300;28;20794;-54
2022/04/15 09:45:51;;;;;;;11.10;6.87;;;9.60;99.90;;;;;;5263237;28;20352;-54
2022/04/15 09:48:23;;;;;;;9.90;6.50;;;9.70;99.90;;;;;;5257707;28;20555;-54
2022/04/15 09:50:55;;;;;;;9.17;7.27;;;9.60;99.90;;;;;;5281206;28;20496;-55
2022/04/15 09:53:33;;;;;;;9.60;7.00;;;9.60;99.90;;;;;;5260553;28;20462;-55
2022/04/15 09:56:05;;;;;;;12.90;7.17;;;9.40;99.90;;;;;;5264494;28;20514;-55
2022/04/15 09:58:38;;;;;;;7.77;7.07;;;9.30;99.90;;;;;;5269799;28;20423;-55
2022/04/15 10:01:08;;;;;;;9.77;6.80;;;9.30;99.90;;;;;;5258109;28;20793;-54
2022/04/15 10:03:44;;;;;;;6.83;6.20;;;9.30;99.90;;;;;;5263391;28;20431;-55
2022/04/15 10:06:16;;;;;;;8.80;7.67;;;9.30;99.90;;;;;;5268219;28;20177;-54
2022/04/15 10:08:48;;;;;;;14.70;10.50;;;9.30;99.90;;;;;;5268423;28;20481;-55
2022/04/15 10:11:20;;;;;;;8.20;7.40;;;9.40;99.90;;;;;;5262500;28;20504;-54
2022/04/15 10:13:51;;;;;;;8.77;7.20;;;9.50;99.90;;;;;;5267513;28;20450;-54
2022/04/15 10:16:22;;;;;;;8.10;6.67;;;9.50;99.90;;;;;;5265944;28;20484;-53
2022/04/15 10:18:53;;;;;;;11.13;8.07;;;9.50;99.90;;;;;;5263537;28;20427;-55
2022/04/15 10:21:24;;;;;;;8.97;8.07;;;9.40;99.90;;;;;;5266040;28;20474;-54
2022/04/15 10:23:55;;;;;;;7.73;6.00;;;9.40;99.90;;;;;;5263874;28;20185;-53
2022/04/15 10:26:25;;;;;;;8.87;7.33;;;9.30;99.90;;;;;;5265811;28;20448;-54
2022/04/15 10:28:56;;;;;;;7.57;6.87;;;9.30;99.90;;;;;;5269659;28;20654;-55
2022/04/15 10:31:39;;;;;;;15.70;7.07;;;9.30;99.90;;;;;;5267435;28;20209;-54
2022/04/15 10:34:15;;;;;;;7.43;6.67;;;9.50;99.90;;;;;;5264565;28;20200;-53
2022/04/15 10:36:47;;;;;;;8.13;6.40;;;9.60;99.90;;;;;;5260084;28;20435;-53
2022/04/15 10:39:23;;;;;;;7.80;6.07;;;9.60;99.90;;;;;;5268835;28;20442;-53
2022/04/15 10:42:01;;;;;;;7.83;6.07;;;9.70;99.90;;;;;;5268836;28;20815;-54
2022/04/15 10:44:38;;;;;;;6.03;5.40;;;9.80;99.90;;;;;;5266049;28;20443;-53
2022/04/15 10:47:22;;;;;;;7.20;6.50;;;10.00;99.90;;;;;;5261987;28;20450;-53
2022/04/15 10:50:04;;;;;;;9.43;5.40;;;10.10;99.90;;;;;;5265764;28;20451;-53
2022/04/15 10:52:36;;;;;;;4.73;4.20;;;10.30;99.90;;;;;;5249369;28;20792;-54
2022/04/15 10:55:15;;;;;;;5.43;4.57;;;10.40;99.90;;;;;;5261381;28;20443;-53
2022/04/15 10:57:48;;;;;;;5.43;4.87;;;10.50;99.90;;;;;;5260667;28;20454;-54
2022/04/15 11:03:23;;;;;;;14.43;11.00;;;10.70;99.90;;;;;;5256722;28;20529;-53
2022/04/15 11:05:57;;;;;;;13.10;8.30;;;10.60;99.90;;;;;;5256142;28;20449;-54
2022/04/15 11:08:28;;;;;;;9.80;5.63;;;10.70;99.90;;;;;;5260933;28;20525;-53
2022/04/15 11:11:02;;;;;;;5.43;4.73;;;10.70;99.90;;;;;;5260779;28;20647;-53
2022/04/15 11:13:56;;;;;;;3.40;3.20;;;10.70;99.90;;;;;;5256466;28;20515;-53
2022/04/15 11:16:47;;;;;;;3.10;2.87;;;10.70;99.90;;;;;;5256380;28;20444;-52
2022/04/15 11:19:29;;;;;;;2.83;2.63;;;10.50;99.90;;;;;;5256922;28;20451;-53
2022/04/15 11:22:00;;;;;;;4.47;4.00;;;10.40;99.90;;;;;;5252868;28;20462;-53
2022/04/15 11:24:33;;;;;;;3.93;3.63;;;10.30;99.90;;;;;;5259901;28;20467;-53
2022/04/15 11:27:04;;;;;;;2.83;2.63;;;10.30;99.90;;;;;;5257583;28;20485;-53
2022/04/15 11:29:35;;;;;;;2.57;2.47;;;10.40;99.90;;;;;;5245146;28;20544;-53
2022/04/15 11:32:07;;;;;;;2.37;2.03;;;10.30;99.90;;;;;;5258882;28;20448;-54
2022/04/15 11:34:38;;;;;;;2.40;2.30;;;10.30;99.90;;;;;;5263333;28;20559;-54
2022/04/15 11:37:09;;;;;;;3.30;3.10;;;10.30;99.90;;;;;;5259437;28;21248;-54
2022/04/15 11:39:45;;;;;;;5.10;4.63;;;10.30;99.90;;;;;;5258972;28;20231;-53
2022/04/15 11:42:17;;;;;;;3.00;2.80;;;10.20;99.90;;;;;;5257253;28;20971;-55
2022/04/15 11:44:48;;;;;;;2.63;2.43;;;10.20;99.90;;;;;;5257349;28;20525;-53
2022/04/15 11:47:19;;;;;;;1.90;1.90;;;10.30;99.90;;;;;;5256530;28;20444;-54
2022/04/15 11:49:51;;;;;;;3.13;1.93;;;10.30;99.90;;;;;;5257067;28;20262;-53
2022/04/15 11:52:27;;;;;;;1.83;1.83;;;10.20;99.90;;;;;;5260088;28;20206;-55
2022/04/15 11:54:58;;;;;;;2.00;1.90;;;10.20;99.90;;;;;;5260847;28;20488;-55
2022/04/15 11:57:30;;;;;;;5.73;3.37;;;10.50;99.90;;;;;;5258531;28;20439;-51
2022/04/15 12:00:03;;;;;;;2.37;2.17;;;10.60;99.90;;;;;;5258531;28;20440;-52
2022/04/15 12:02:40;;;;;;;8.53;4.77;;;10.70;99.90;;;;;;5264081;28;20440;-53
2022/04/15 12:05:10;;;;;;;16.23;12.13;;;10.80;99.90;;;;;;5260151;28;20435;-54
2022/04/15 12:07:42;;;;;;;3.43;3.03;;;10.80;99.90;;;;;;5262410;28;20500;-51
2022/04/15 12:10:13;;;;;;;2.87;2.17;;;10.80;99.90;;;;;;5257407;28;20294;-51
2022/04/15 12:12:43;;;;;;;2.40;2.17;;;10.60;99.90;;;;;;5256745;28;20459;-51
2022/04/15 12:15:14;;;;;;;2.70;2.60;;;10.50;99.90;;;;;;5259589;28;20178;-51
2022/04/15 12:17:46;;;;;;;2.30;2.20;;;10.50;99.90;;;;;;5261254;28;20208;-51
2022/04/15 12:20:17;;;;;;;2.17;2.10;;;10.20;99.90;;;;;;5257567;28;20174;-53
2022/04/15 12:22:48;;;;;;;3.63;2.40;;;10.20;99.90;;;;;;5261310;28;20433;-50
2022/04/15 12:25:20;;;;;;;3.53;3.30;;;10.20;99.90;;;;;;5258585;28;20481;-51
2022/04/15 12:27:53;;;;;;;8.73;5.40;;;10.10;99.90;;;;;;5262197;28;20837;-51
2022/04/15 12:30:39;;;;;;;6.00;5.50;;;10.10;99.90;;;;;;5257785;28;20460;-53
2022/04/15 12:33:10;;;;;;;6.33;5.70;;;10.20;99.90;;;;;;5266157;28;20966;-52
2022/04/15 12:36:02;;;;;;;4.40;3.50;;;10.20;99.90;;;;;;5260422;28;20518;-52
2022/04/15 12:38:59;;;;;;;2.27;2.17;;;10.30;99.90;;;;;;5257456;28;20469;-53
2022/04/15 12:41:41;;;;;;;3.00;2.90;;;10.30;99.90;;;;;;5251558;28;20463;-52
2022/04/15 12:44:17;;;;;;;2.93;2.70;;;10.30;99.90;;;;;;5256846;28;20448;-51
2022/04/15 12:46:54;;;;;;;3.60;3.33;;;10.40;99.90;;;;;;5259737;28;20915;-51
2022/04/15 12:49:29;;;;;;;3.80;3.43;;;10.30;99.90;;;;;;5257685;28;20435;-51
2022/04/15 12:52:14;;;;;;;6.10;4.43;;;10.50;99.90;;;;;;5248157;28;20455;-51
2022/04/15 12:55:11;;;;;;;5.87;4.63;;;10.50;99.90;;;;;;5260048;28;20490;-55
2022/04/15 12:57:41;;;;;;;2.30;2.20;;;10.70;99.90;;;;;;5253576;28;20475;-51
2022/04/15 13:00:12;;;;;;;2.40;2.23;;;10.80;99.90;;;;;;5253829;28;20523;-53
2022/04/15 13:02:43;;;;;;;2.57;2.47;;;10.80;99.90;;;;;;5249552;28;20181;-52
2022/04/15 13:05:14;;;;;;;2.23;2.13;;;10.80;99.90;;;;;;5260801;28;20504;-52
2022/04/15 13:07:49;;;;;;;2.20;2.10;;;10.80;99.90;;;;;;5261951;28;20248;-52
2022/04/15 13:10:20;;;;;;;2.30;2.00;;;11.00;99.90;;;;;;5258093;28;20462;-51
2022/04/15 13:12:51;;;;;;;3.73;3.50;;;11.20;99.90;;;;;;5259980;28;20932;-52
2022/04/15 13:15:22;;;;;;;2.10;2.00;;;11.50;99.90;;;;;;5263514;28;20442;-51
2022/04/15 13:17:53;;;;;;;2.23;2.13;;;11.70;99.90;;;;;;5256461;28;20558;-51